createdAt,value
2023-06-26T00:02:18.540Z,99067.63
2023-06-26T00:04:45.468Z,99057.13
2023-06-26T00:07:12.565Z,99063.91
2023-06-26T00:09:39.415Z,99059.94
2023-06-26T00:12:06.743Z,99058.66
2023-06-26T00:14:33.427Z,99070.19
2023-06-26T00:16:59.929Z,99064.97
2023-06-26T00:19:26.443Z,99061.88
2023-06-26T00:21:53.370Z,99058.59
2023-06-26T00:24:20.423Z,99060.53
2023-06-26T00:26:48.382Z,99057.41
2023-06-26T00:29:15.296Z,99053.75
2023-06-26T00:31:42.139Z,99053.56
2023-06-26T00:34:08.798Z,99053.13
2023-06-26T00:36:35.698Z,99056.03
2023-06-26T00:39:02.347Z,99059.50
2023-06-26T00:41:29.106Z,99056.97
2023-06-26T00:43:55.650Z,99051.34
2023-06-26T00:46:23.122Z,99058.97
2023-06-26T00:48:50.244Z,99052.25
2023-06-26T00:51:17.709Z,99050.13
2023-06-26T00:53:44.904Z,99055.84
2023-06-26T00:56:12.498Z,99052.97
2023-06-26T00:58:39.010Z,99046.66
2023-06-26T01:01:07.173Z,99033.00
2023-06-26T01:03:33.737Z,99026.47
2023-06-26T01:06:01.308Z,99039.94
2023-06-26T01:08:28.654Z,99046.44
2023-06-26T01:10:55.279Z,99040.59
2023-06-26T01:13:22.429Z,99041.22
2023-06-26T01:15:50.176Z,99041.19
2023-06-26T01:18:17.857Z,99034.13
2023-06-26T01:20:46.050Z,99032.06
2023-06-26T01:23:40.617Z,99035.84
2023-06-26T01:26:10.187Z,99024.53
2023-06-26T01:28:43.264Z,99026.19
2023-06-26T01:31:12.032Z,99020.53
2023-06-26T01:33:39.905Z,99013.41
2023-06-26T01:36:07.321Z,99010.66
2023-06-26T01:38:35.666Z,99001.59
2023-06-26T01:41:02.925Z,99002.47
2023-06-26T01:44:00.666Z,99001.63
2023-06-26T01:46:47.957Z,98992.41
2023-06-26T01:50:00.288Z,99007.09
2023-06-26T01:52:37.318Z,99006.47
2023-06-26T01:55:24.967Z,99009.66
2023-06-26T01:57:55.517Z,99013.22
2023-06-26T02:00:23.307Z,99013.16
2023-06-26T02:02:49.973Z,99008.38
2023-06-26T02:05:17.185Z,99000.25
2023-06-26T02:07:44.855Z,99004.81
2023-06-26T02:10:11.777Z,99013.44
2023-06-26T02:12:38.785Z,99003.38
2023-06-26T02:15:07.494Z,98997.47
2023-06-26T02:17:34.598Z,99006.53
2023-06-26T02:20:01.333Z,99004.69
2023-06-26T02:22:29.645Z,98995.44
2023-06-26T02:24:56.362Z,99000.66
2023-06-26T02:27:22.919Z,99003.84
2023-06-26T02:29:49.716Z,98999.88
2023-06-26T02:32:16.802Z,98989.59
2023-06-26T02:34:43.701Z,98992.97
2023-06-26T02:37:11.482Z,98991.72
2023-06-26T02:39:38.044Z,99003.66
2023-06-26T02:42:05.062Z,98996.94
2023-06-26T02:44:31.663Z,98994.00
2023-06-26T02:46:58.612Z,98992.69
2023-06-26T02:49:25.137Z,98998.16
2023-06-26T02:51:52.047Z,98992.28
2023-06-26T02:54:18.589Z,98996.06
2023-06-26T02:56:47.968Z,99000.94
2023-06-26T02:59:15.096Z,99002.19
2023-06-26T03:01:41.981Z,99002.41
2023-06-26T03:04:09.222Z,98991.09
2023-06-26T03:06:35.935Z,98991.31
2023-06-26T03:09:03.994Z,98995.09
2023-06-26T03:11:30.512Z,98993.66
2023-06-26T03:13:57.409Z,98995.50
2023-06-26T03:16:23.943Z,99002.91
2023-06-26T03:18:50.479Z,99004.16
2023-06-26T03:21:17.189Z,99011.53
2023-06-26T03:23:43.791Z,99026.84
2023-06-26T03:26:10.918Z,99016.63
2023-06-26T03:28:37.568Z,99024.16
2023-06-26T03:31:04.252Z,99033.63
2023-06-26T03:33:31.725Z,99023.75
2023-06-26T03:35:58.687Z,99032.53
2023-06-26T03:38:27.314Z,99035.69
2023-06-26T03:40:54.289Z,99038.00
2023-06-26T03:43:20.973Z,99046.81
2023-06-26T03:45:47.782Z,99057.69
2023-06-26T03:48:15.012Z,99058.75
2023-06-26T03:50:43.486Z,99065.00
2023-06-26T03:53:10.236Z,99050.16
2023-06-26T03:55:37.146Z,99052.66
2023-06-26T03:58:04.130Z,99045.31
2023-06-26T04:00:31.118Z,99063.31
2023-06-26T04:02:58.466Z,99071.06
2023-06-26T04:05:25.179Z,99080.75
2023-06-26T04:07:52.694Z,99085.31
2023-06-26T04:10:19.697Z,99082.00
2023-06-26T04:12:46.338Z,99080.31
2023-06-26T04:15:13.059Z,99082.25
2023-06-26T04:17:39.637Z,99090.00
2023-06-26T04:20:07.495Z,99096.47
2023-06-26T04:22:34.658Z,99097.72
2023-06-26T04:25:05.292Z,99109.66
2023-06-26T04:27:34.296Z,99110.28
2023-06-26T04:30:02.316Z,99117.03
2023-06-26T04:32:28.969Z,99112.25
2023-06-26T04:34:55.496Z,99111.41
2023-06-26T04:37:23.269Z,99119.78
2023-06-26T04:39:49.804Z,99118.78
2023-06-26T04:42:16.799Z,99111.69
2023-06-26T04:44:43.574Z,99104.59
2023-06-26T04:47:51.443Z,99109.19
2023-06-26T04:50:23.936Z,99109.81
2023-06-26T04:52:50.545Z,99109.56
2023-06-26T04:55:17.238Z,99107.78
2023-06-26T04:57:43.803Z,99093.69
2023-06-26T05:00:12.423Z,99092.25
2023-06-26T05:02:39.041Z,99096.25
2023-06-26T05:05:05.964Z,99091.34
2023-06-26T05:07:32.713Z,99089.94
2023-06-26T05:09:59.269Z,99097.25
2023-06-26T05:12:25.826Z,99088.28
2023-06-26T05:14:52.432Z,99094.16
2023-06-26T05:17:19.059Z,99091.63
2023-06-26T05:19:45.764Z,99093.59
2023-06-26T05:22:14.037Z,99100.75
2023-06-26T05:24:44.057Z,99102.06
2023-06-26T05:27:11.993Z,99103.13
2023-06-26T05:29:39.180Z,99092.72
2023-06-26T05:32:07.664Z,99100.13
2023-06-26T05:34:35.328Z,99107.94
2023-06-26T05:37:03.056Z,99102.94
2023-06-26T05:39:29.847Z,99107.13
2023-06-26T05:41:57.854Z,99116.75
2023-06-26T05:44:24.735Z,99105.94
2023-06-26T05:46:51.878Z,99112.91
2023-06-26T05:49:19.483Z,99117.75
2023-06-26T05:51:46.322Z,99107.81
2023-06-26T05:54:14.302Z,99109.44
2023-06-26T05:56:43.441Z,99124.50
2023-06-26T05:59:12.942Z,99126.47
2023-06-26T06:01:39.775Z,99122.13
2023-06-26T06:04:06.427Z,99126.47
2023-06-26T06:06:33.031Z,99123.13
2023-06-26T06:08:59.651Z,99118.50
2023-06-26T06:11:26.134Z,99118.84
2023-06-26T06:13:53.114Z,99118.81
2023-06-26T06:16:19.636Z,99122.63
2023-06-26T06:18:46.282Z,99120.63
2023-06-26T06:21:12.815Z,99128.78
2023-06-26T06:23:39.746Z,99133.13
2023-06-26T06:26:06.276Z,99139.22
2023-06-26T06:28:32.804Z,99139.59
2023-06-26T06:31:00.351Z,99148.53
2023-06-26T06:33:27.273Z,99150.00
2023-06-26T06:35:54.014Z,99148.38
2023-06-26T06:38:20.606Z,99145.72
2023-06-26T06:40:47.064Z,99161.25
2023-06-26T06:43:14.134Z,99171.88
2023-06-26T06:45:40.762Z,99165.50
2023-06-26T06:48:08.929Z,99166.66
2023-06-26T06:50:36.182Z,99186.13
2023-06-26T06:53:03.165Z,99184.09
2023-06-26T06:55:30.170Z,99176.25
2023-06-26T06:57:57.343Z,99167.38
2023-06-26T07:00:24.095Z,99173.63
2023-06-26T07:02:50.866Z,99181.00
2023-06-26T07:05:17.634Z,99185.03
2023-06-26T07:07:44.370Z,99186.22
2023-06-26T07:10:13.142Z,99179.78
2023-06-26T07:12:40.204Z,99172.56
2023-06-26T07:15:07.620Z,99183.03
2023-06-26T07:17:35.449Z,99177.28
2023-06-26T07:20:05.373Z,99185.75
2023-06-26T07:22:32.356Z,99188.53
2023-06-26T07:24:58.961Z,99193.72
2023-06-26T07:27:26.683Z,99194.63
2023-06-26T07:29:53.256Z,99185.22
2023-06-26T07:32:19.904Z,99188.72
2023-06-26T07:34:47.529Z,99189.13
2023-06-26T07:37:14.470Z,99206.13
2023-06-26T07:39:41.144Z,99199.75
2023-06-26T07:42:07.777Z,99215.38
2023-06-26T07:44:34.892Z,99217.81
2023-06-26T07:47:01.492Z,99227.22
2023-06-26T07:49:28.249Z,99234.41
2023-06-26T07:51:54.972Z,99240.34
2023-06-26T07:54:21.845Z,99238.06
2023-06-26T07:57:02.381Z,99241.59
2023-06-26T07:59:30.903Z,99237.59
2023-06-26T08:01:58.469Z,99236.78
2023-06-26T08:04:27.610Z,99238.44
2023-06-26T08:06:57.208Z,99243.97
2023-06-26T08:09:25.662Z,99250.59
2023-06-26T08:11:52.691Z,99248.06
2023-06-26T08:14:19.625Z,99250.69
2023-06-26T08:16:47.253Z,99242.09
2023-06-26T08:19:15.208Z,99242.91
2023-06-26T08:21:43.011Z,99250.84
2023-06-26T08:24:10.220Z,99248.63
2023-06-26T08:26:37.701Z,99240.34
2023-06-26T08:29:11.788Z,99239.59
2023-06-26T08:31:39.705Z,99235.59
2023-06-26T08:34:07.021Z,99253.03
2023-06-26T08:36:33.632Z,99246.28
2023-06-26T08:39:00.360Z,99253.88
2023-06-26T08:41:27.151Z,99249.88
2023-06-26T08:43:53.865Z,99258.41
2023-06-26T08:46:20.997Z,99264.38
2023-06-26T08:48:57.377Z,99276.53
2023-06-26T08:51:27.154Z,99281.56
2023-06-26T08:54:01.558Z,99291.56
2023-06-26T08:56:43.210Z,99280.91
2023-06-26T08:59:11.969Z,99276.34
2023-06-26T09:01:39.409Z,99280.44
2023-06-26T09:04:06.993Z,99275.00
2023-06-26T09:06:34.449Z,99278.75
2023-06-26T09:09:01.083Z,99277.13
2023-06-26T09:11:27.905Z,99286.53
2023-06-26T09:13:56.648Z,99291.78
2023-06-26T09:16:28.156Z,99274.44
2023-06-26T09:18:55.620Z,99291.69
2023-06-26T09:21:22.818Z,99284.03
2023-06-26T09:23:50.984Z,99289.69
2023-06-26T09:26:17.874Z,99277.56
2023-06-26T09:28:44.860Z,99284.75
2023-06-26T09:31:11.474Z,99282.88
2023-06-26T09:33:39.552Z,99291.91
2023-06-26T09:36:19.920Z,99291.06
2023-06-26T09:38:46.445Z,99292.81
2023-06-26T09:41:16.423Z,99298.25
2023-06-26T09:43:50.787Z,99300.69
2023-06-26T09:46:19.207Z,99298.25
2023-06-26T09:48:45.901Z,99289.91
2023-06-26T09:51:14.827Z,99286.00
2023-06-26T09:53:43.368Z,99296.53
2023-06-26T09:56:19.872Z,99289.69
2023-06-26T09:58:46.798Z,99287.44
2023-06-26T10:01:14.162Z,99296.25
2023-06-26T10:03:41.193Z,99296.91
2023-06-26T10:06:12.941Z,99288.09
2023-06-26T10:08:41.096Z,99291.59
2023-06-26T10:11:12.962Z,99282.19
2023-06-26T10:13:43.418Z,99301.81
2023-06-26T10:16:12.064Z,99296.28
2023-06-26T10:18:40.282Z,99297.84
2023-06-26T10:21:09.350Z,99307.84
2023-06-26T10:23:40.147Z,99299.06
2023-06-26T10:26:08.613Z,99299.19
2023-06-26T10:28:36.512Z,99313.72
2023-06-26T10:31:05.798Z,99319.09
2023-06-26T10:33:33.008Z,99320.09
2023-06-26T10:36:29.719Z,99310.56
2023-06-26T10:38:59.385Z,99317.06
2023-06-26T10:41:26.711Z,99314.44
2023-06-26T10:44:18.197Z,99315.09
2023-06-26T10:46:55.166Z,99326.69
2023-06-26T10:49:26.468Z,99327.28
2023-06-26T10:51:55.035Z,99341.94
2023-06-26T10:54:22.753Z,99334.31
2023-06-26T10:56:51.232Z,99329.94
2023-06-26T10:59:20.872Z,99329.41
2023-06-26T11:01:56.005Z,99336.09
2023-06-26T11:04:42.189Z,99336.88
2023-06-26T11:07:25.281Z,99332.09
2023-06-26T11:10:09.064Z,99324.84
2023-06-26T11:12:45.455Z,99325.25
2023-06-26T11:15:17.109Z,99329.22
2023-06-26T11:17:45.099Z,99332.44
2023-06-26T11:20:14.849Z,99331.97
2023-06-26T11:22:43.593Z,99322.22
2023-06-26T11:25:11.214Z,99324.09
2023-06-26T11:27:44.755Z,99314.53
2023-06-26T11:30:24.132Z,99323.63
2023-06-26T11:32:50.984Z,99331.84
2023-06-26T11:35:47.526Z,99331.88
2023-06-26T11:38:14.788Z,99322.81
2023-06-26T11:40:41.837Z,99327.53
2023-06-26T11:43:09.228Z,99343.88
2023-06-26T11:45:36.528Z,99342.59
2023-06-26T11:48:03.497Z,99356.63
2023-06-26T11:50:30.186Z,99347.31
2023-06-26T11:52:58.708Z,99341.84
2023-06-26T11:55:26.266Z,99350.19
2023-06-26T11:57:57.823Z,99348.22
2023-06-26T12:00:25.250Z,99350.59
2023-06-26T12:02:53.113Z,99346.19
2023-06-26T12:05:20.986Z,99364.09
2023-06-26T12:07:48.737Z,99355.66
2023-06-26T12:10:16.579Z,99355.09
2023-06-26T12:12:44.172Z,99347.09
2023-06-26T12:15:16.478Z,99337.31
2023-06-26T12:17:44.475Z,99357.97
2023-06-26T12:20:23.776Z,99360.66
2023-06-26T12:22:50.818Z,99364.47
2023-06-26T12:25:27.494Z,99346.16
2023-06-26T12:27:54.015Z,99349.16
2023-06-26T12:30:20.986Z,99362.03
2023-06-26T12:32:48.146Z,99346.25
2023-06-26T12:35:17.293Z,99347.56
2023-06-26T12:37:47.228Z,99337.38
2023-06-26T12:40:20.074Z,99356.91
2023-06-26T12:42:46.977Z,99362.50
2023-06-26T12:45:31.118Z,99354.13
2023-06-26T12:48:11.850Z,99366.75
2023-06-26T12:50:44.583Z,99365.56
2023-06-26T12:53:11.395Z,99366.56
2023-06-26T12:55:38.431Z,99360.97
2023-06-26T12:58:04.926Z,99368.75
2023-06-26T13:00:33.089Z,99377.66
2023-06-26T13:02:59.876Z,99383.16
2023-06-26T13:05:26.730Z,99391.69
2023-06-26T13:07:54.665Z,99377.50
2023-06-26T13:10:21.213Z,99386.69
2023-06-26T13:12:47.890Z,99381.06
2023-06-26T13:15:14.385Z,99391.94
2023-06-26T13:17:40.995Z,99393.75
2023-06-26T13:20:09.722Z,99391.22
2023-06-26T13:22:36.731Z,99392.47
2023-06-26T13:25:03.447Z,99391.84
2023-06-26T13:27:30.225Z,99384.00
2023-06-26T13:29:56.757Z,99378.31
2023-06-26T13:32:23.263Z,99370.78
2023-06-26T13:34:49.920Z,99375.56
2023-06-26T13:37:16.426Z,99377.88
2023-06-26T13:39:44.474Z,99369.75
2023-06-26T13:42:10.990Z,99385.53
2023-06-26T13:44:47.965Z,99389.16
2023-06-26T13:47:22.937Z,99386.41
2023-06-26T13:49:49.636Z,99385.59
2023-06-26T13:52:16.466Z,99388.81
2023-06-26T13:54:44.370Z,99392.94
2023-06-26T13:57:11.243Z,99400.06
2023-06-26T13:59:40.976Z,99406.25
2023-06-26T14:02:09.051Z,99412.91
2023-06-26T14:04:35.868Z,99399.31
2023-06-26T14:07:02.590Z,99404.94
2023-06-26T14:09:29.498Z,99403.41
2023-06-26T14:11:56.145Z,99396.09
2023-06-26T14:14:22.722Z,99402.91
2023-06-26T14:16:50.123Z,99401.13
2023-06-26T14:19:18.541Z,99405.50
2023-06-26T14:21:45.358Z,99410.91
2023-06-26T14:24:11.972Z,99412.56
2023-06-26T14:26:40.216Z,99407.09
2023-06-26T14:29:07.230Z,99417.84
2023-06-26T14:31:34.401Z,99407.81
2023-06-26T14:34:01.222Z,99409.72
2023-06-26T14:36:29.057Z,99393.50
2023-06-26T14:38:55.914Z,99398.13
2023-06-26T14:41:23.240Z,99406.06
2023-06-26T14:43:50.304Z,99408.47
2023-06-26T14:46:17.354Z,99401.88
2023-06-26T14:48:44.501Z,99413.53
2023-06-26T14:51:11.061Z,99407.97
2023-06-26T14:53:37.588Z,99409.13
2023-06-26T14:56:04.657Z,99410.03
2023-06-26T14:58:31.225Z,99411.22
2023-06-26T15:00:58.768Z,99409.72
2023-06-26T15:03:25.552Z,99429.31
2023-06-26T15:05:52.892Z,99432.28
2023-06-26T15:08:19.434Z,99415.13
2023-06-26T15:10:46.459Z,99412.34
2023-06-26T15:13:12.979Z,99410.75
2023-06-26T15:15:39.731Z,99407.59
2023-06-26T15:18:07.681Z,99406.13
2023-06-26T15:20:34.380Z,99406.72
2023-06-26T15:23:00.983Z,99405.47
2023-06-26T15:25:29.275Z,99403.94
2023-06-26T15:27:56.019Z,99411.47
2023-06-26T15:30:22.566Z,99410.03
2023-06-26T15:32:49.400Z,99409.69
2023-06-26T15:35:16.278Z,99421.28
2023-06-26T15:37:42.803Z,99402.50
2023-06-26T15:40:10.122Z,99415.09
2023-06-26T15:42:49.342Z,99422.34
2023-06-26T15:45:18.717Z,99422.59
2023-06-26T15:47:48.567Z,99418.88
2023-06-26T15:50:15.597Z,99411.56
2023-06-26T15:52:42.248Z,99417.22
2023-06-26T15:55:10.706Z,99413.63
2023-06-26T15:57:37.551Z,99418.84
2023-06-26T16:00:05.521Z,99427.72
2023-06-26T16:02:32.291Z,99427.09
2023-06-26T16:04:58.871Z,99414.22
2023-06-26T16:07:25.700Z,99423.41
2023-06-26T16:09:52.228Z,99405.03
2023-06-26T16:12:19.212Z,99421.59
2023-06-26T16:14:45.766Z,99416.38
2023-06-26T16:17:13.470Z,99420.22
2023-06-26T16:19:39.965Z,99421.38
2023-06-26T16:22:07.921Z,99413.22
2023-06-26T16:24:34.518Z,99414.47
2023-06-26T16:27:01.370Z,99414.47
2023-06-26T16:29:28.217Z,99414.75
2023-06-26T16:31:57.612Z,99412.63
2023-06-26T16:34:24.314Z,99427.56
2023-06-26T16:36:52.123Z,99419.72
2023-06-26T16:39:22.975Z,99412.13
2023-06-26T16:41:55.569Z,99418.97
2023-06-26T16:44:23.211Z,99423.91
2023-06-26T16:46:49.982Z,99421.94
2023-06-26T16:49:16.987Z,99428.31
2023-06-26T16:51:43.563Z,99437.13
2023-06-26T16:54:11.052Z,99424.22
2023-06-26T16:56:37.949Z,99438.53
2023-06-26T16:59:04.567Z,99432.56
2023-06-26T17:01:31.267Z,99430.06
2023-06-26T17:03:58.290Z,99433.06
2023-06-26T17:06:25.249Z,99439.19
2023-06-26T17:08:52.100Z,99436.03
2023-06-26T17:11:18.713Z,99431.06
2023-06-26T17:13:45.452Z,99445.72
2023-06-26T17:16:12.642Z,99444.88
2023-06-26T17:18:39.332Z,99445.72
2023-06-26T17:21:05.864Z,99445.56
2023-06-26T17:23:32.900Z,99445.34
2023-06-26T17:26:01.960Z,99448.81
2023-06-26T17:28:32.077Z,99455.50
2023-06-26T17:30:59.016Z,99444.94
2023-06-26T17:33:25.595Z,99447.03
2023-06-26T17:35:52.100Z,99451.88
2023-06-26T17:38:18.605Z,99459.22
2023-06-26T17:40:45.324Z,99450.63
2023-06-26T17:43:11.834Z,99456.69
2023-06-26T17:45:39.164Z,99460.72
2023-06-26T17:48:06.166Z,99467.25
2023-06-26T17:50:33.193Z,99469.25
2023-06-26T17:53:00.231Z,99472.00
2023-06-26T17:55:27.069Z,99463.81
2023-06-26T17:57:53.719Z,99463.41
2023-06-26T18:00:20.898Z,99472.63
2023-06-26T18:02:47.622Z,99482.34
2023-06-26T18:05:14.776Z,99474.59
2023-06-26T18:08:01.656Z,99489.03
2023-06-26T18:10:27.919Z,99482.97
2023-06-26T18:12:57.060Z,99493.69
2023-06-26T18:15:23.992Z,99498.53
2023-06-26T18:17:50.557Z,99492.03
2023-06-26T18:20:17.312Z,99500.00
2023-06-26T18:22:43.967Z,99493.28
2023-06-26T18:25:10.498Z,99500.00
2023-06-26T18:27:40.686Z,99498.94
2023-06-26T18:30:08.351Z,99501.47
2023-06-26T18:32:34.895Z,99503.38
2023-06-26T18:35:01.711Z,99493.50
2023-06-26T18:37:28.467Z,99495.16
2023-06-26T18:39:54.998Z,99499.56
2023-06-26T18:42:22.737Z,99501.44
2023-06-26T18:44:50.408Z,99509.63
2023-06-26T18:47:17.103Z,99506.03
2023-06-26T18:49:43.715Z,99512.97
2023-06-26T18:52:10.684Z,99508.75
2023-06-26T18:54:37.208Z,99511.28
2023-06-26T18:57:04.110Z,99510.16
2023-06-26T18:59:30.616Z,99512.25
2023-06-26T19:01:57.364Z,99512.88
2023-06-26T19:04:25.112Z,99520.19
2023-06-26T19:06:51.983Z,99518.28
2023-06-26T19:09:18.908Z,99527.06
2023-06-26T19:11:45.899Z,99532.72
2023-06-26T19:14:12.435Z,99540.91
2023-06-26T19:16:39.655Z,99540.25
2023-06-26T19:19:06.915Z,99536.22
2023-06-26T19:21:33.852Z,99541.44
2023-06-26T19:24:00.363Z,99546.84
2023-06-26T19:26:26.878Z,99551.22
2023-06-26T19:28:53.443Z,99549.31
2023-06-26T19:31:20.150Z,99550.81
2023-06-26T19:33:46.769Z,99546.75
2023-06-26T19:36:15.914Z,99553.13
2023-06-26T19:38:42.527Z,99563.50
2023-06-26T19:41:09.184Z,99559.28
2023-06-26T19:43:35.665Z,99564.25
2023-06-26T19:46:03.101Z,99567.75
2023-06-26T19:48:30.794Z,99564.19
2023-06-26T19:50:57.589Z,99567.09
2023-06-26T19:53:28.058Z,99564.69
2023-06-26T19:55:54.612Z,99577.78
2023-06-26T19:58:21.401Z,99572.69
2023-06-26T20:00:48.033Z,99571.31
2023-06-26T20:03:16.169Z,99574.19
2023-06-26T20:05:43.349Z,99575.09
2023-06-26T20:08:10.126Z,99581.59
2023-06-26T20:10:38.018Z,99578.13
2023-06-26T20:13:05.045Z,99579.72
2023-06-26T20:15:31.747Z,99582.56
2023-06-26T20:17:58.326Z,99588.59
2023-06-26T20:20:25.254Z,99590.44
2023-06-26T20:22:51.882Z,99587.91
2023-06-26T20:25:18.928Z,99597.78
2023-06-26T20:27:45.444Z,99597.22
2023-06-26T20:30:12.442Z,99598.00
2023-06-26T20:32:39.368Z,99601.25
2023-06-26T20:35:06.509Z,99599.66
2023-06-26T20:37:33.470Z,99601.72
2023-06-26T20:40:01.032Z,99601.63
2023-06-26T20:42:28.004Z,99601.81
2023-06-26T20:44:58.259Z,99600.78
2023-06-26T20:47:34.385Z,99602.38
2023-06-26T20:50:01.892Z,99608.09
2023-06-26T20:52:30.376Z,99604.25
2023-06-26T20:54:57.579Z,99604.34
2023-06-26T20:57:24.223Z,99615.94
2023-06-26T20:59:51.057Z,99614.63
2023-06-26T21:02:17.770Z,99617.22
2023-06-26T21:04:44.426Z,99615.88
2023-06-26T21:07:11.148Z,99618.31
2023-06-26T21:09:37.713Z,99623.94
2023-06-26T21:12:04.802Z,99620.19
2023-06-26T21:14:31.978Z,99627.09
2023-06-26T21:16:58.627Z,99625.78
2023-06-26T21:19:25.696Z,99626.16
2023-06-26T21:21:52.526Z,99631.56
2023-06-26T21:24:19.126Z,99627.72
2023-06-26T21:26:46.006Z,99622.19
2023-06-26T21:29:12.593Z,99632.91
2023-06-26T21:31:39.227Z,99636.88
2023-06-26T21:34:06.052Z,99633.38
2023-06-26T21:36:32.729Z,99631.09
2023-06-26T21:38:59.620Z,99639.94
2023-06-26T21:41:29.105Z,99647.28
2023-06-26T21:43:55.671Z,99642.22
2023-06-26T21:46:22.672Z,99649.41
2023-06-26T21:48:49.330Z,99643.72
2023-06-26T21:51:16.509Z,99651.50
2023-06-26T21:53:43.014Z,99653.56
2023-06-26T21:56:09.780Z,99659.00
2023-06-26T21:58:36.380Z,99664.28
2023-06-26T22:01:02.896Z,99664.47
2023-06-26T22:03:29.579Z,99668.38
2023-06-26T22:05:56.640Z,99659.75
2023-06-26T22:08:23.509Z,99664.00
2023-06-26T22:10:50.099Z,99652.00
2023-06-26T22:13:16.829Z,99664.13
2023-06-26T22:15:43.489Z,99666.34
2023-06-26T22:18:10.833Z,99666.66
2023-06-26T22:20:37.871Z,99677.31
2023-06-26T22:23:04.360Z,99663.28
2023-06-26T22:25:31.348Z,99673.94
2023-06-26T22:27:57.945Z,99670.38
2023-06-26T22:30:31.163Z,99677.34
2023-06-26T22:32:58.145Z,99673.63
2023-06-26T22:35:25.041Z,99677.66
2023-06-26T22:37:52.070Z,99679.50
2023-06-26T22:40:19.524Z,99676.94
2023-06-26T22:42:46.212Z,99687.41
2023-06-26T22:45:13.132Z,99687.22
2023-06-26T22:47:44.658Z,99683.56
2023-06-26T22:50:11.535Z,99690.19
2023-06-26T22:52:38.773Z,99686.16
2023-06-26T22:55:05.801Z,99682.25
2023-06-26T22:57:34.717Z,99685.16
2023-06-26T23:00:01.312Z,99682.25
2023-06-26T23:02:27.998Z,99686.09
2023-06-26T23:04:54.946Z,99686.09
2023-06-26T23:07:22.106Z,99689.28
2023-06-26T23:09:49.716Z,99691.81
2023-06-26T23:12:16.907Z,99686.94
2023-06-26T23:14:43.623Z,99692.88
2023-06-26T23:17:12.286Z,99691.19
2023-06-26T23:19:40.982Z,99690.19
2023-06-26T23:22:10.266Z,99686.47
2023-06-26T23:24:38.149Z,99693.53
2023-06-26T23:27:09.875Z,99697.50
2023-06-26T23:29:38.243Z,99704.34
2023-06-26T23:32:09.296Z,99702.91
2023-06-26T23:34:40.267Z,99705.69
2023-06-26T23:37:13.711Z,99698.13
2023-06-26T23:39:41.618Z,99703.16
2023-06-26T23:42:08.231Z,99708.56
2023-06-26T23:44:37.548Z,99708.88
2023-06-26T23:47:05.379Z,99710.56
2023-06-26T23:49:33.206Z,99711.59
2023-06-26T23:52:00.186Z,99711.50
2023-06-26T23:54:28.840Z,99713.44
2023-06-26T23:56:56.178Z,99718.63
2023-06-26T23:59:23.547Z,99718.72
